sensor_id;sensor_type;location;lat;lon;timestamp;temperature;humidity
439;DHT22;206;48.782;9.252;2023-07-24T00:01:16;22.60;28.00
439;DHT22;206;48.782;9.252;2023-07-24T00:03:42;22.60;27.50
439;DHT22;206;48.782;9.252;2023-07-24T00:06:08;22.60;28.00
439;DHT22;206;48.782;9.252;2023-07-24T00:08:33;22.50;28.50
439;DHT22;206;48.782;9.252;2023-07-24T00:10:59;22.60;25.60
439;DHT22;206;48.782;9.252;2023-07-24T00:13:24;22.50;27.40
439;DHT22;206;48.782;9.252;2023-07-24T00:15:50;22.50;28.90
439;DHT22;206;48.782;9.252;2023-07-24T00:18:16;22.50;30.00
439;DHT22;206;48.782;9.252;2023-07-24T00:20:41;22.40;30.00
439;DHT22;206;48.782;9.252;2023-07-24T00:23:07;22.30;29.80
439;DHT22;206;48.782;9.252;2023-07-24T00:25:33;22.30;30.00
439;DHT22;206;48.782;9.252;2023-07-24T00:27:58;22.30;30.00
439;DHT22;206;48.782;9.252;2023-07-24T00:30:24;22.30;33.50
439;DHT22;206;48.782;9.252;2023-07-24T00:32:49;22.20;34.90
439;DHT22;206;48.782;9.252;2023-07-24T00:35:15;22.20;34.40
439;DHT22;206;48.782;9.252;2023-07-24T00:37:41;22.20;38.70
439;DHT22;206;48.782;9.252;2023-07-24T00:40:07;22.20;38.60
439;DHT22;206;48.782;9.252;2023-07-24T00:42:32;22.10;39.50
439;DHT22;206;48.782;9.252;2023-07-24T00:44:58;22.00;41.40
439;DHT22;206;48.782;9.252;2023-07-24T00:47:25;22.00;40.80
439;DHT22;206;48.782;9.252;2023-07-24T00:49:51;21.90;41.30
439;DHT22;206;48.782;9.252;2023-07-24T00:52:17;21.80;41.80
439;DHT22;206;48.782;9.252;2023-07-24T00:54:43;21.80;41.10
439;DHT22;206;48.782;9.252;2023-07-24T00:57:10;21.70;42.00
439;DHT22;206;48.782;9.252;2023-07-24T00:59:36;21.80;42.70
439;DHT22;206;48.782;9.252;2023-07-24T01:02:02;21.80;44.10
439;DHT22;206;48.782;9.252;2023-07-24T01:04:27;21.80;41.90
439;DHT22;206;48.782;9.252;2023-07-24T01:06:54;21.70;44.20
439;DHT22;206;48.782;9.252;2023-07-24T01:09:20;21.70;43.60
439;DHT22;206;48.782;9.252;2023-07-24T01:12:39;21.70;42.30
439;DHT22;206;48.782;9.252;2023-07-24T01:15:26;21.70;40.80
439;DHT22;206;48.782;9.252;2023-07-24T01:17:59;21.70;40.90
439;DHT22;206;48.782;9.252;2023-07-24T01:20:26;21.60;40.60
439;DHT22;206;48.782;9.252;2023-07-24T01:25:32;21.50;42.10
439;DHT22;206;48.782;9.252;2023-07-24T01:28:00;21.50;42.00
439;DHT22;206;48.782;9.252;2023-07-24T01:30:26;21.60;39.80
439;DHT22;206;48.782;9.252;2023-07-24T01:32:52;21.60;38.20
439;DHT22;206;48.782;9.252;2023-07-24T01:35:17;21.50;37.70
439;DHT22;206;48.782;9.252;2023-07-24T01:37:44;21.50;38.50
439;DHT22;206;48.782;9.252;2023-07-24T01:40:12;21.50;38.30
439;DHT22;206;48.782;9.252;2023-07-24T01:42:38;21.50;39.30
439;DHT22;206;48.782;9.252;2023-07-24T01:45:04;21.60;39.00
439;DHT22;206;48.782;9.252;2023-07-24T01:47:30;21.50;37.30
439;DHT22;206;48.782;9.252;2023-07-24T01:49:56;21.60;36.60
439;DHT22;206;48.782;9.252;2023-07-24T01:52:22;21.60;37.90
439;DHT22;206;48.782;9.252;2023-07-24T01:54:47;21.60;36.80
439;DHT22;206;48.782;9.252;2023-07-24T01:57:13;21.60;36.90
439;DHT22;206;48.782;9.252;2023-07-24T01:59:39;21.60;36.80
439;DHT22;206;48.782;9.252;2023-07-24T02:02:04;21.60;36.20
439;DHT22;206;48.782;9.252;2023-07-24T02:04:30;21.50;34.60
439;DHT22;206;48.782;9.252;2023-07-24T02:06:56;21.40;33.70
439;DHT22;206;48.782;9.252;2023-07-24T02:09:21;21.40;33.70
439;DHT22;206;48.782;9.252;2023-07-24T02:11:47;21.50;33.60
439;DHT22;206;48.782;9.252;2023-07-24T02:14:14;21.50;32.90
439;DHT22;206;48.782;9.252;2023-07-24T02:16:40;21.50;33.80
439;DHT22;206;48.782;9.252;2023-07-24T02:19:06;21.50;34.50
439;DHT22;206;48.782;9.252;2023-07-24T02:21:32;21.50;33.80
439;DHT22;206;48.782;9.252;2023-07-24T02:23:58;21.50;33.70
439;DHT22;206;48.782;9.252;2023-07-24T02:26:23;21.50;33.70
439;DHT22;206;48.782;9.252;2023-07-24T02:28:49;21.40;33.70
439;DHT22;206;48.782;9.252;2023-07-24T02:31:14;21.40;33.70
439;DHT22;206;48.782;9.252;2023-07-24T02:33:40;21.40;33.70
439;DHT22;206;48.782;9.252;2023-07-24T02:36:06;21.40;34.40
439;DHT22;206;48.782;9.252;2023-07-24T02:38:31;21.40;33.70
439;DHT22;206;48.782;9.252;2023-07-24T02:40:57;21.40;33.70
439;DHT22;206;48.782;9.252;2023-07-24T02:43:22;21.40;33.70
439;DHT22;206;48.782;9.252;2023-07-24T02:45:48;21.30;33.60
439;DHT22;206;48.782;9.252;2023-07-24T02:48:14;21.20;33.50
439;DHT22;206;48.782;9.252;2023-07-24T02:50:39;21.20;33.50
439;DHT22;206;48.782;9.252;2023-07-24T02:53:05;21.20;33.50
439;DHT22;206;48.782;9.252;2023-07-24T02:55:31;21.20;33.50
439;DHT22;206;48.782;9.252;2023-07-24T02:57:56;21.20;34.80
439;DHT22;206;48.782;9.252;2023-07-24T03:00:22;21.30;35.30
439;DHT22;206;48.782;9.252;2023-07-24T03:02:47;21.30;34.80
439;DHT22;206;48.782;9.252;2023-07-24T03:05:13;21.40;34.10
439;DHT22;206;48.782;9.252;2023-07-24T03:07:39;21.30;33.60
439;DHT22;206;48.782;9.252;2023-07-24T03:10:04;21.30;33.60
439;DHT22;206;48.782;9.252;2023-07-24T03:12:30;21.10;33.40
439;DHT22;206;48.782;9.252;2023-07-24T03:14:56;21.10;33.40
439;DHT22;206;48.782;9.252;2023-07-24T03:17:22;21.10;34.10
439;DHT22;206;48.782;9.252;2023-07-24T03:19:48;21.10;33.40
439;DHT22;206;48.782;9.252;2023-07-24T03:22:14;21.10;33.40
439;DHT22;206;48.782;9.252;2023-07-24T03:24:40;21.10;33.40
439;DHT22;206;48.782;9.252;2023-07-24T03:27:05;21.00;33.40
439;DHT22;206;48.782;9.252;2023-07-24T03:29:31;20.90;34.20
439;DHT22;206;48.782;9.252;2023-07-24T03:31:56;20.80;34.40
439;DHT22;206;48.782;9.252;2023-07-24T03:34:22;20.80;35.50
439;DHT22;206;48.782;9.252;2023-07-24T03:36:48;20.80;35.40
439;DHT22;206;48.782;9.252;2023-07-24T03:39:13;20.80;35.50
439;DHT22;206;48.782;9.252;2023-07-24T03:41:42;20.90;35.30
439;DHT22;206;48.782;9.252;2023-07-24T03:44:08;20.90;34.90
439;DHT22;206;48.782;9.252;2023-07-24T03:46:34;20.90;35.00
439;DHT22;206;48.782;9.252;2023-07-24T03:49:00;20.90;34.70
439;DHT22;206;48.782;9.252;2023-07-24T03:51:25;20.90;34.80
439;DHT22;206;48.782;9.252;2023-07-24T03:53:51;20.90;36.10
439;DHT22;206;48.782;9.252;2023-07-24T03:56:17;21.00;35.30
439;DHT22;206;48.782;9.252;2023-07-24T03:58:42;21.00;34.60
439;DHT22;206;48.782;9.252;2023-07-24T04:01:08;21.00;33.80
439;DHT22;206;48.782;9.252;2023-07-24T04:03:34;20.90;34.00
439;DHT22;206;48.782;9.252;2023-07-24T04:06:00;20.80;34.10
439;DHT22;206;48.782;9.252;2023-07-24T04:08:26;20.70;34.30
439;DHT22;206;48.782;9.252;2023-07-24T04:10:51;20.70;34.70
439;DHT22;206;48.782;9.252;2023-07-24T04:13:17;20.70;34.40
439;DHT22;206;48.782;9.252;2023-07-24T04:15:43;20.60;34.30
439;DHT22;206;48.782;9.252;2023-07-24T04:18:10;20.70;34.50
439;DHT22;206;48.782;9.252;2023-07-24T04:20:36;20.80;34.50
439;DHT22;206;48.782;9.252;2023-07-24T04:23:01;20.80;34.10
439;DHT22;206;48.782;9.252;2023-07-24T04:25:27;20.90;34.30
439;DHT22;206;48.782;9.252;2023-07-24T04:27:53;20.90;33.70
439;DHT22;206;48.782;9.252;2023-07-24T04:30:18;20.90;33.70
439;DHT22;206;48.782;9.252;2023-07-24T04:32:44;21.00;33.30
439;DHT22;206;48.782;9.252;2023-07-24T04:35:09;20.90;33.30
439;DHT22;206;48.782;9.252;2023-07-24T04:37:35;21.00;34.00
439;DHT22;206;48.782;9.252;2023-07-24T04:40:01;21.10;34.10
439;DHT22;206;48.782;9.252;2023-07-24T04:42:26;21.10;33.40
439;DHT22;206;48.782;9.252;2023-07-24T04:44:52;21.10;33.40
439;DHT22;206;48.782;9.252;2023-07-24T04:47:18;21.10;33.40
439;DHT22;206;48.782;9.252;2023-07-24T04:49:43;21.10;33.40
439;DHT22;206;48.782;9.252;2023-07-24T04:52:09;21.20;33.50
439;DHT22;206;48.782;9.252;2023-07-24T04:54:34;21.20;33.50
439;DHT22;206;48.782;9.252;2023-07-24T04:57:00;21.30;33.60
439;DHT22;206;48.782;9.252;2023-07-24T04:59:26;21.30;33.60
439;DHT22;206;48.782;9.252;2023-07-24T05:01:51;21.40;33.70
439;DHT22;206;48.782;9.252;2023-07-24T05:04:17;21.40;33.70
439;DHT22;206;48.782;9.252;2023-07-24T05:06:42;21.40;33.70
439;DHT22;206;48.782;9.252;2023-07-24T05:09:08;21.40;33.70
439;DHT22;206;48.782;9.252;2023-07-24T05:11:34;21.40;33.70
439;DHT22;206;48.782;9.252;2023-07-24T05:13:59;21.40;33.70
439;DHT22;206;48.782;9.252;2023-07-24T05:16:25;21.50;33.70
439;DHT22;206;48.782;9.252;2023-07-24T05:18:51;21.50;33.70
439;DHT22;206;48.782;9.252;2023-07-24T05:21:16;21.50;33.50
439;DHT22;206;48.782;9.252;2023-07-24T05:23:42;21.60;33.30
439;DHT22;206;48.782;9.252;2023-07-24T05:26:07;21.60;33.90
439;DHT22;206;48.782;9.252;2023-07-24T05:28:33;21.70;33.10
439;DHT22;206;48.782;9.252;2023-07-24T05:31:02;21.70;32.80
439;DHT22;206;48.782;9.252;2023-07-24T05:33:29;21.70;32.70
439;DHT22;206;48.782;9.252;2023-07-24T05:36:02;21.80;32.80
439;DHT22;206;48.782;9.252;2023-07-24T05:38:28;21.90;32.80
439;DHT22;206;48.782;9.252;2023-07-24T05:40:57;21.90;32.30
439;DHT22;206;48.782;9.252;2023-07-24T05:43:23;21.90;32.50
439;DHT22;206;48.782;9.252;2023-07-24T05:45:50;21.90;32.30
439;DHT22;206;48.782;9.252;2023-07-24T05:48:16;21.80;32.10
439;DHT22;206;48.782;9.252;2023-07-24T05:50:41;21.80;32.30
439;DHT22;206;48.782;9.252;2023-07-24T05:53:07;21.90;32.80
439;DHT22;206;48.782;9.252;2023-07-24T05:55:33;21.90;32.60
439;DHT22;206;48.782;9.252;2023-07-24T05:57:58;21.90;32.20
439;DHT22;206;48.782;9.252;2023-07-24T06:00:24;21.90;32.10
439;DHT22;206;48.782;9.252;2023-07-24T06:02:49;22.00;31.90
439;DHT22;206;48.782;9.252;2023-07-24T06:05:15;22.00;31.50
439;DHT22;206;48.782;9.252;2023-07-24T06:07:41;22.00;31.50
439;DHT22;206;48.782;9.252;2023-07-24T06:10:06;22.00;31.50
439;DHT22;206;48.782;9.252;2023-07-24T06:12:32;22.10;31.50
439;DHT22;206;48.782;9.252;2023-07-24T06:14:58;22.10;31.00
439;DHT22;206;48.782;9.252;2023-07-24T06:17:23;22.10;30.50
439;DHT22;206;48.782;9.252;2023-07-24T06:19:49;22.10;30.90
439;DHT22;206;48.782;9.252;2023-07-24T06:22:15;22.10;30.80
439;DHT22;206;48.782;9.252;2023-07-24T06:24:40;22.20;30.10
439;DHT22;206;48.782;9.252;2023-07-24T06:27:06;22.30;30.10
439;DHT22;206;48.782;9.252;2023-07-24T06:29:32;22.30;30.00
439;DHT22;206;48.782;9.252;2023-07-24T06:31:58;22.30;30.00
439;DHT22;206;48.782;9.252;2023-07-24T06:34:23;22.40;29.60
439;DHT22;206;48.782;9.252;2023-07-24T06:36:49;22.40;29.60
439;DHT22;206;48.782;9.252;2023-07-24T06:39:15;22.40;29.60
439;DHT22;206;48.782;9.252;2023-07-24T06:41:41;22.50;29.90
439;DHT22;206;48.782;9.252;2023-07-24T06:44:06;22.40;29.40
439;DHT22;206;48.782;9.252;2023-07-24T06:46:32;22.50;29.50
439;DHT22;206;48.782;9.252;2023-07-24T06:48:57;22.60;29.00
439;DHT22;206;48.782;9.252;2023-07-24T06:51:23;22.70;29.20
439;DHT22;206;48.782;9.252;2023-07-24T06:53:48;22.70;29.10
439;DHT22;206;48.782;9.252;2023-07-24T06:56:14;22.80;28.80
439;DHT22;206;48.782;9.252;2023-07-24T06:58:40;22.90;28.70
439;DHT22;206;48.782;9.252;2023-07-24T07:01:06;22.90;28.50
439;DHT22;206;48.782;9.252;2023-07-24T07:03:32;22.90;28.40
439;DHT22;206;48.782;9.252;2023-07-24T07:06:00;23.00;28.20
439;DHT22;206;48.782;9.252;2023-07-24T07:08:26;23.00;28.50
439;DHT22;206;48.782;9.252;2023-07-24T07:10:57;23.00;28.30
439;DHT22;206;48.782;9.252;2023-07-24T07:13:22;23.10;28.50
439;DHT22;206;48.782;9.252;2023-07-24T07:15:48;23.10;28.20
439;DHT22;206;48.782;9.252;2023-07-24T07:18:13;23.20;28.30
439;DHT22;206;48.782;9.252;2023-07-24T07:20:45;23.20;27.80
439;DHT22;206;48.782;9.252;2023-07-24T07:23:10;23.10;27.90
439;DHT22;206;48.782;9.252;2023-07-24T07:25:36;23.20;27.90
439;DHT22;206;48.782;9.252;2023-07-24T07:28:01;23.20;27.80
439;DHT22;206;48.782;9.252;2023-07-24T07:30:27;23.20;27.90
439;DHT22;206;48.782;9.252;2023-07-24T07:32:53;23.20;27.90
439;DHT22;206;48.782;9.252;2023-07-24T07:35:18;23.20;28.20
439;DHT22;206;48.782;9.252;2023-07-24T07:37:44;23.30;28.30
439;DHT22;206;48.782;9.252;2023-07-24T07:40:09;23.20;28.50
439;DHT22;206;48.782;9.252;2023-07-24T07:42:35;23.20;28.80
439;DHT22;206;48.782;9.252;2023-07-24T07:45:01;23.30;28.80
439;DHT22;206;48.782;9.252;2023-07-24T07:47:26;23.30;28.80
439;DHT22;206;48.782;9.252;2023-07-24T07:49:52;23.30;28.90
439;DHT22;206;48.782;9.252;2023-07-24T07:52:17;23.30;28.90
439;DHT22;206;48.782;9.252;2023-07-24T07:54:47;23.40;29.10
439;DHT22;206;48.782;9.252;2023-07-24T07:57:13;23.40;29.10
439;DHT22;206;48.782;9.252;2023-07-24T07:59:38;23.50;29.20
439;DHT22;206;48.782;9.252;2023-07-24T08:02:04;23.50;29.20
439;DHT22;206;48.782;9.252;2023-07-24T08:04:30;23.50;29.10
439;DHT22;206;48.782;9.252;2023-07-24T08:06:55;23.50;29.30
439;DHT22;206;48.782;9.252;2023-07-24T08:09:21;23.60;30.00
439;DHT22;206;48.782;9.252;2023-07-24T08:11:49;23.60;31.00
439;DHT22;206;48.782;9.252;2023-07-24T08:14:15;23.60;31.10
439;DHT22;206;48.782;9.252;2023-07-24T08:16:40;23.60;32.00
439;DHT22;206;48.782;9.252;2023-07-24T08:19:06;23.70;32.30
439;DHT22;206;48.782;9.252;2023-07-24T08:21:31;23.70;31.10
439;DHT22;206;48.782;9.252;2023-07-24T08:23:57;23.70;32.20
439;DHT22;206;48.782;9.252;2023-07-24T08:26:23;23.70;32.30
439;DHT22;206;48.782;9.252;2023-07-24T08:28:52;23.70;33.70
439;DHT22;206;48.782;9.252;2023-07-24T08:31:17;23.70;37.40
439;DHT22;206;48.782;9.252;2023-07-24T08:33:43;23.70;35.70
439;DHT22;206;48.782;9.252;2023-07-24T08:36:09;23.70;38.40
439;DHT22;206;48.782;9.252;2023-07-24T08:38:37;23.60;39.80
439;DHT22;206;48.782;9.252;2023-07-24T08:41:12;23.60;39.70
439;DHT22;206;48.782;9.252;2023-07-24T08:43:40;23.60;39.30
439;DHT22;206;48.782;9.252;2023-07-24T08:46:07;23.40;40.60
439;DHT22;206;48.782;9.252;2023-07-24T08:48:35;23.40;44.20
439;DHT22;206;48.782;9.252;2023-07-24T08:51:05;23.40;43.90
439;DHT22;206;48.782;9.252;2023-07-24T08:53:30;23.30;44.60
439;DHT22;206;48.782;9.252;2023-07-24T08:55:59;23.30;44.10
439;DHT22;206;48.782;9.252;2023-07-24T08:58:25;23.30;43.90
439;DHT22;206;48.782;9.252;2023-07-24T09:00:50;23.40;45.70
439;DHT22;206;48.782;9.252;2023-07-24T09:03:20;23.40;46.30
439;DHT22;206;48.782;9.252;2023-07-24T09:05:46;23.40;47.10
439;DHT22;206;48.782;9.252;2023-07-24T09:08:11;23.50;45.80
439;DHT22;206;48.782;9.252;2023-07-24T09:10:37;23.50;44.90
439;DHT22;206;48.782;9.252;2023-07-24T09:13:03;23.50;46.30
439;DHT22;206;48.782;9.252;2023-07-24T09:15:42;23.60;45.90
439;DHT22;206;48.782;9.252;2023-07-24T09:18:08;23.60;45.90
439;DHT22;206;48.782;9.252;2023-07-24T09:20:42;23.60;46.00
439;DHT22;206;48.782;9.252;2023-07-24T09:23:08;23.70;46.00
439;DHT22;206;48.782;9.252;2023-07-24T09:25:36;23.80;45.70
439;DHT22;206;48.782;9.252;2023-07-24T09:28:16;23.80;46.10
439;DHT22;206;48.782;9.252;2023-07-24T09:30:51;23.90;46.20
439;DHT22;206;48.782;9.252;2023-07-24T09:33:16;23.90;46.20
439;DHT22;206;48.782;9.252;2023-07-24T09:35:42;24.10;44.10
439;DHT22;206;48.782;9.252;2023-07-24T09:38:09;24.20;43.40
439;DHT22;206;48.782;9.252;2023-07-24T09:40:39;24.30;41.80
439;DHT22;206;48.782;9.252;2023-07-24T09:43:35;24.30;40.40
439;DHT22;206;48.782;9.252;2023-07-24T09:46:07;24.30;39.30
439;DHT22;206;48.782;9.252;2023-07-24T09:48:33;24.30;39.20
439;DHT22;206;48.782;9.252;2023-07-24T09:51:00;24.30;37.10
439;DHT22;206;48.782;9.252;2023-07-24T09:53:43;24.30;38.70
439;DHT22;206;48.782;9.252;2023-07-24T09:56:13;24.30;38.10
439;DHT22;206;48.782;9.252;2023-07-24T09:58:40;24.20;38.60
439;DHT22;206;48.782;9.252;2023-07-24T10:01:09;24.20;39.00
439;DHT22;206;48.782;9.252;2023-07-24T10:03:40;24.20;38.60
439;DHT22;206;48.782;9.252;2023-07-24T10:06:06;24.20;38.60
439;DHT22;206;48.782;9.252;2023-07-24T10:08:36;24.20;39.20
439;DHT22;206;48.782;9.252;2023-07-24T10:11:02;24.20;39.70
439;DHT22;206;48.782;9.252;2023-07-24T10:13:28;24.20;40.30
439;DHT22;206;48.782;9.252;2023-07-24T10:15:54;24.20;41.30
439;DHT22;206;48.782;9.252;2023-07-24T10:18:27;24.20;42.50
439;DHT22;206;48.782;9.252;2023-07-24T10:21:03;24.10;42.50
439;DHT22;206;48.782;9.252;2023-07-24T10:23:29;24.10;43.00
439;DHT22;206;48.782;9.252;2023-07-24T10:25:55;24.10;42.60
439;DHT22;206;48.782;9.252;2023-07-24T10:28:31;24.10;43.30
439;DHT22;206;48.782;9.252;2023-07-24T10:30:57;24.10;44.50
439;DHT22;206;48.782;9.252;2023-07-24T10:33:23;24.10;44.20
439;DHT22;206;48.782;9.252;2023-07-24T10:35:54;24.00;43.90
439;DHT22;206;48.782;9.252;2023-07-24T10:38:19;24.00;45.00
439;DHT22;206;48.782;9.252;2023-07-24T10:40:47;24.00;45.00
439;DHT22;206;48.782;9.252;2023-07-24T10:43:20;23.90;46.70
439;DHT22;206;48.782;9.252;2023-07-24T10:45:52;23.90;48.00
439;DHT22;206;48.782;9.252;2023-07-24T10:48:23;23.90;50.00
439;DHT22;206;48.782;9.252;2023-07-24T10:50:50;23.90;50.40
439;DHT22;206;48.782;9.252;2023-07-24T10:53:18;23.80;50.90
439;DHT22;206;48.782;9.252;2023-07-24T10:55:45;23.70;51.40
439;DHT22;206;48.782;9.252;2023-07-24T10:58:13;23.60;53.60
439;DHT22;206;48.782;9.252;2023-07-24T11:00:43;23.60;54.90
439;DHT22;206;48.782;9.252;2023-07-24T11:03:13;23.50;53.40
439;DHT22;206;48.782;9.252;2023-07-24T11:05:43;23.50;53.50
439;DHT22;206;48.782;9.252;2023-07-24T11:08:13;23.40;54.20
439;DHT22;206;48.782;9.252;2023-07-24T11:10:49;23.40;56.30
439;DHT22;206;48.782;9.252;2023-07-24T11:13:15;23.20;55.40
439;DHT22;206;48.782;9.252;2023-07-24T11:15:42;23.20;57.30
439;DHT22;206;48.782;9.252;2023-07-24T11:18:07;23.00;58.10
439;DHT22;206;48.782;9.252;2023-07-24T11:23:28;22.90;59.00
439;DHT22;206;48.782;9.252;2023-07-24T11:25:54;22.80;60.80
439;DHT22;206;48.782;9.252;2023-07-24T11:28:20;22.70;59.80
439;DHT22;206;48.782;9.252;2023-07-24T11:30:46;22.70;56.90
439;DHT22;206;48.782;9.252;2023-07-24T11:33:15;22.70;57.50
439;DHT22;206;48.782;9.252;2023-07-24T11:35:41;22.70;58.20
439;DHT22;206;48.782;9.252;2023-07-24T11:38:10;22.60;58.50
439;DHT22;206;48.782;9.252;2023-07-24T11:43:02;22.50;62.60
439;DHT22;206;48.782;9.252;2023-07-24T11:45:28;22.60;63.20
439;DHT22;206;48.782;9.252;2023-07-24T11:47:54;22.70;62.10
439;DHT22;206;48.782;9.252;2023-07-24T11:50:20;23.00;60.50
439;DHT22;206;48.782;9.252;2023-07-24T11:52:52;23.20;60.80
439;DHT22;206;48.782;9.252;2023-07-24T11:55:23;23.40;59.10
439;DHT22;206;48.782;9.252;2023-07-24T11:57:56;23.50;56.80
439;DHT22;206;48.782;9.252;2023-07-24T12:00:22;23.60;58.30
439;DHT22;206;48.782;9.252;2023-07-24T12:02:48;23.60;56.90
439;DHT22;206;48.782;9.252;2023-07-24T12:05:14;23.80;55.00
439;DHT22;206;48.782;9.252;2023-07-24T12:07:43;23.70;53.70
439;DHT22;206;48.782;9.252;2023-07-24T12:10:13;23.60;52.10
439;DHT22;206;48.782;9.252;2023-07-24T12:12:43;23.60;54.70
439;DHT22;206;48.782;9.252;2023-07-24T12:15:09;23.50;53.40
439;DHT22;206;48.782;9.252;2023-07-24T12:17:35;23.40;54.10
439;DHT22;206;48.782;9.252;2023-07-24T12:20:01;23.40;54.70
439;DHT22;206;48.782;9.252;2023-07-24T12:22:27;23.40;55.60
439;DHT22;206;48.782;9.252;2023-07-24T12:24:53;23.40;55.60
439;DHT22;206;48.782;9.252;2023-07-24T12:27:19;23.40;55.10
439;DHT22;206;48.782;9.252;2023-07-24T12:29:44;23.40;55.60
439;DHT22;206;48.782;9.252;2023-07-24T12:32:10;23.40;55.00
439;DHT22;206;48.782;9.252;2023-07-24T12:34:36;23.40;55.60
439;DHT22;206;48.782;9.252;2023-07-24T12:37:01;23.30;56.90
439;DHT22;206;48.782;9.252;2023-07-24T12:39:27;23.40;56.80
439;DHT22;206;48.782;9.252;2023-07-24T12:41:52;23.40;56.50
439;DHT22;206;48.782;9.252;2023-07-24T12:44:18;23.50;55.60
439;DHT22;206;48.782;9.252;2023-07-24T12:46:43;23.60;54.50
439;DHT22;206;48.782;9.252;2023-07-24T12:49:09;23.60;52.60
439;DHT22;206;48.782;9.252;2023-07-24T12:51:35;23.50;50.20
439;DHT22;206;48.782;9.252;2023-07-24T12:54:00;23.40;51.10
439;DHT22;206;48.782;9.252;2023-07-24T12:56:26;23.40;53.30
439;DHT22;206;48.782;9.252;2023-07-24T12:58:52;23.50;54.70
439;DHT22;206;48.782;9.252;2023-07-24T13:01:17;23.60;53.10
439;DHT22;206;48.782;9.252;2023-07-24T13:03:43;23.70;51.60
439;DHT22;206;48.782;9.252;2023-07-24T13:06:09;23.80;53.80
439;DHT22;206;48.782;9.252;2023-07-24T13:08:34;23.90;50.30
439;DHT22;206;48.782;9.252;2023-07-24T13:11:00;23.90;49.80
439;DHT22;206;48.782;9.252;2023-07-24T13:13:25;24.00;48.00
439;DHT22;206;48.782;9.252;2023-07-24T13:15:51;24.10;48.50
439;DHT22;206;48.782;9.252;2023-07-24T13:18:17;24.20;47.30
439;DHT22;206;48.782;9.252;2023-07-24T13:20:45;24.30;48.10
439;DHT22;206;48.782;9.252;2023-07-24T13:23:11;24.30;46.90
439;DHT22;206;48.782;9.252;2023-07-24T13:25:36;24.40;46.60
439;DHT22;206;48.782;9.252;2023-07-24T13:28:02;24.40;46.60
439;DHT22;206;48.782;9.252;2023-07-24T13:30:27;24.40;46.60
439;DHT22;206;48.782;9.252;2023-07-24T13:32:53;24.60;46.80
439;DHT22;206;48.782;9.252;2023-07-24T13:35:19;24.80;45.20
439;DHT22;206;48.782;9.252;2023-07-24T13:37:44;25.00;43.50
439;DHT22;206;48.782;9.252;2023-07-24T13:40:10;25.10;43.40
439;DHT22;206;48.782;9.252;2023-07-24T13:42:36;25.20;42.80
439;DHT22;206;48.782;9.252;2023-07-24T13:45:01;25.30;41.10
439;DHT22;206;48.782;9.252;2023-07-24T13:47:27;25.40;39.80
439;DHT22;206;48.782;9.252;2023-07-24T13:49:52;25.50;37.20
439;DHT22;206;48.782;9.252;2023-07-24T13:52:18;25.60;35.30
439;DHT22;206;48.782;9.252;2023-07-24T13:54:44;25.70;32.60
439;DHT22;206;48.782;9.252;2023-07-24T13:57:09;25.70;31.90
439;DHT22;206;48.782;9.252;2023-07-24T13:59:36;25.70;31.60
439;DHT22;206;48.782;9.252;2023-07-24T14:02:03;25.80;31.90
439;DHT22;206;48.782;9.252;2023-07-24T14:04:29;25.90;31.40
439;DHT22;206;48.782;9.252;2023-07-24T14:06:55;26.00;30.70
439;DHT22;206;48.782;9.252;2023-07-24T14:09:20;26.10;31.00
439;DHT22;206;48.782;9.252;2023-07-24T14:11:46;26.10;30.00
439;DHT22;206;48.782;9.252;2023-07-24T14:14:11;26.30;30.40
439;DHT22;206;48.782;9.252;2023-07-24T14:16:37;26.40;29.50
439;DHT22;206;48.782;9.252;2023-07-24T14:19:02;26.50;29.50
439;DHT22;206;48.782;9.252;2023-07-24T14:21:28;26.60;29.00
439;DHT22;206;48.782;9.252;2023-07-24T14:23:54;26.70;28.10
439;DHT22;206;48.782;9.252;2023-07-24T14:26:19;26.70;28.10
439;DHT22;206;48.782;9.252;2023-07-24T14:28:45;26.80;27.90
439;DHT22;206;48.782;9.252;2023-07-24T14:31:11;26.80;26.40
439;DHT22;206;48.782;9.252;2023-07-24T14:33:36;26.90;26.20
439;DHT22;206;48.782;9.252;2023-07-24T14:36:02;26.80;26.10
439;DHT22;206;48.782;9.252;2023-07-24T14:38:28;26.80;26.60
439;DHT22;206;48.782;9.252;2023-07-24T14:40:53;26.80;26.00
439;DHT22;206;48.782;9.252;2023-07-24T14:43:19;26.70;27.00
439;DHT22;206;48.782;9.252;2023-07-24T14:45:46;26.70;27.20
439;DHT22;206;48.782;9.252;2023-07-24T14:48:12;26.70;27.10
439;DHT22;206;48.782;9.252;2023-07-24T14:50:39;26.70;26.40
439;DHT22;206;48.782;9.252;2023-07-24T14:53:05;26.80;27.10
439;DHT22;206;48.782;9.252;2023-07-24T14:55:31;26.90;27.10
439;DHT22;206;48.782;9.252;2023-07-24T14:57:56;26.80;25.90
439;DHT22;206;48.782;9.252;2023-07-24T15:00:22;26.70;25.50
439;DHT22;206;48.782;9.252;2023-07-24T15:02:48;26.70;25.10
439;DHT22;206;48.782;9.252;2023-07-24T15:05:13;26.60;24.60
439;DHT22;206;48.782;9.252;2023-07-24T15:07:39;26.60;24.20
439;DHT22;206;48.782;9.252;2023-07-24T15:10:05;26.60;24.60
439;DHT22;206;48.782;9.252;2023-07-24T15:12:31;26.60;24.00
439;DHT22;206;48.782;9.252;2023-07-24T15:14:56;26.60;24.10
439;DHT22;206;48.782;9.252;2023-07-24T15:17:22;26.60;24.40
439;DHT22;206;48.782;9.252;2023-07-24T15:19:47;26.60;24.70
439;DHT22;206;48.782;9.252;2023-07-24T15:22:13;26.70;25.10
439;DHT22;206;48.782;9.252;2023-07-24T15:24:40;26.70;25.10
439;DHT22;206;48.782;9.252;2023-07-24T15:27:07;26.70;25.30
439;DHT22;206;48.782;9.252;2023-07-24T15:29:37;26.60;25.40
439;DHT22;206;48.782;9.252;2023-07-24T15:32:05;26.60;25.30
439;DHT22;206;48.782;9.252;2023-07-24T15:34:30;26.40;25.30
439;DHT22;206;48.782;9.252;2023-07-24T15:36:56;26.40;25.30
439;DHT22;206;48.782;9.252;2023-07-24T15:39:22;26.20;25.40
439;DHT22;206;48.782;9.252;2023-07-24T15:41:47;26.10;26.00
439;DHT22;206;48.782;9.252;2023-07-24T15:44:13;26.00;26.40
439;DHT22;206;48.782;9.252;2023-07-24T15:46:38;26.00;27.10
439;DHT22;206;48.782;9.252;2023-07-24T15:49:04;25.90;27.70
439;DHT22;206;48.782;9.252;2023-07-24T15:51:30;25.80;27.60
439;DHT22;206;48.782;9.252;2023-07-24T15:53:57;25.70;28.20
439;DHT22;206;48.782;9.252;2023-07-24T15:56:23;25.60;28.60
439;DHT22;206;48.782;9.252;2023-07-24T15:58:50;25.60;28.60
439;DHT22;206;48.782;9.252;2023-07-24T16:01:17;25.50;28.80
439;DHT22;206;48.782;9.252;2023-07-24T16:03:44;25.50;28.90
439;DHT22;206;48.782;9.252;2023-07-24T16:06:10;25.60;28.70
439;DHT22;206;48.782;9.252;2023-07-24T16:08:36;25.50;28.80
439;DHT22;206;48.782;9.252;2023-07-24T16:11:03;25.40;29.20
439;DHT22;206;48.782;9.252;2023-07-24T16:13:34;25.40;29.40
439;DHT22;206;48.782;9.252;2023-07-24T16:16:00;25.50;29.30
439;DHT22;206;48.782;9.252;2023-07-24T16:18:25;25.40;29.40
439;DHT22;206;48.782;9.252;2023-07-24T16:20:51;25.40;29.40
439;DHT22;206;48.782;9.252;2023-07-24T16:23:16;25.30;29.50
439;DHT22;206;48.782;9.252;2023-07-24T16:25:42;25.30;30.00
439;DHT22;206;48.782;9.252;2023-07-24T16:28:08;25.20;30.00
439;DHT22;206;48.782;9.252;2023-07-24T16:30:34;25.20;30.00
439;DHT22;206;48.782;9.252;2023-07-24T16:32:59;25.10;30.20
439;DHT22;206;48.782;9.252;2023-07-24T16:35:25;25.10;30.40
439;DHT22;206;48.782;9.252;2023-07-24T16:37:50;25.10;30.20